Station Historical Data
Daily Summary for November 8, 2017 Units:  English    Metric   Both
« Previous Day
Next Day »
Daily Weekly Monthly Yearly Custom
  High: Low: Average:
Temperature: 47.8 °F 25.8 °F 35.7 °F
Dew Point: 32.4 °F 23.3 °F 28.2 °F
Humidity: 91% 49% 76%
Wind Speed: 8.0mph 0.0mph 1.1mph
Wind Gust: 13.0mph - -
Wind- - WSW
Pressure: 30.34 in 30.21 in -
Precipitation: 0.00 in    
Historical Graphs
 
 
Tabular Data for November 8, 2017
Time Temperature Dew Point Pressure Wind Wind Speed Wind Gust Humidity Rainfall Rate (Hourly)
00:04 29.4 °F 26.3 °F 30.29 in Calm     88% 0.00 in
00:09 29.3 °F 26.2 °F 30.29 in Calm     88% 0.00 in
00:14 29.3 °F 26.2 °F 30.29 in Calm     88% 0.00 in
00:19 29.2 °F 26.1 °F 30.29 in Calm     88% 0.00 in
00:24 29.0 °F 25.9 °F 30.29 in Calm     88% 0.00 in
00:29 29.0 °F 25.9 °F 30.29 in Calm     88% 0.00 in
00:34 29.0 °F 25.9 °F 30.28 in Calm     88% 0.00 in
00:39 28.7 °F 25.6 °F 30.28 in Calm     88% 0.00 in
00:44 28.7 °F 25.6 °F 30.29 in Calm     88% 0.00 in
00:49 28.7 °F 25.9 °F 30.29 in Calm     89% 0.00 in
00:54 28.8 °F 26.0 °F 30.28 in Calm     89% 0.00 in
00:59 28.8 °F 26.0 °F 30.28 in Calm     89% 0.00 in
01:04 28.8 °F 26.0 °F 30.28 in Calm     89% 0.00 in
01:09 28.8 °F 26.0 °F 30.28 in Calm     89% 0.00 in
01:19 28.7 °F 25.9 °F 30.28 in Calm     89% 0.00 in
01:24 28.6 °F 25.8 °F 30.28 in Calm     89% 0.00 in
01:29 28.7 °F 25.9 °F 30.28 in Calm     89% 0.00 in
01:34 28.5 °F 25.7 °F 30.28 in Calm     89% 0.00 in
01:39 28.6 °F 25.8 °F 30.28 in Calm     89% 0.00 in
01:44 28.7 °F 25.9 °F 30.28 in Calm     89% 0.00 in
01:49 28.4 °F 25.6 °F 30.28 in Calm     89% 0.00 in
01:54 28.2 °F 25.4 °F 30.28 in Calm     89% 0.00 in
01:59 28.2 °F 25.4 °F 30.29 in Calm     89% 0.00 in
02:04 28.3 °F 25.5 °F 30.29 in Calm     89% 0.00 in
02:09 28.3 °F 25.5 °F 30.29 in Calm     89% 0.00 in
02:14 28.2 °F 25.4 °F 30.29 in Calm     89% 0.00 in
02:19 27.9 °F 25.1 °F 30.29 in Calm     89% 0.00 in
02:24 27.7 °F 24.9 °F 30.29 in Calm     89% 0.00 in
02:29 27.5 °F 24.7 °F 30.29 in Calm     89% 0.00 in
02:34 27.8 °F 25.0 °F 30.29 in Calm     89% 0.00 in
02:39 27.7 °F 24.9 °F 30.29 in Calm     89% 0.00 in
02:44 27.6 °F 24.8 °F 30.29 in Calm     89% 0.00 in
02:49 27.7 °F 25.2 °F 30.29 in Calm     90% 0.00 in
02:54 27.9 °F 25.3 °F 30.29 in Calm     90% 0.00 in
02:59 27.9 °F 25.3 °F 30.29 in Calm     90% 0.00 in
03:04 27.8 °F 25.0 °F 30.29 in Calm     89% 0.00 in
03:09 27.8 °F 25.2 °F 30.29 in Calm     90% 0.00 in
03:14 27.7 °F 25.2 °F 30.29 in Calm     90% 0.00 in
03:19 27.8 °F 25.2 °F 30.29 in Calm     90% 0.00 in
03:24 27.8 °F 25.2 °F 30.29 in Calm     90% 0.00 in
03:29 27.8 °F 25.2 °F 30.29 in Calm     90% 0.00 in
03:34 27.7 °F 25.2 °F 30.29 in Calm     90% 0.00 in
03:39 27.5 °F 25.0 °F 30.29 in Calm     90% 0.00 in
03:44 27.4 °F 24.9 °F 30.29 in Calm     90% 0.00 in
03:49 27.4 °F 24.9 °F 30.29 in Calm     90% 0.00 in
03:54 27.4 °F 24.9 °F 30.29 in Calm     90% 0.00 in
03:59 27.2 °F 24.7 °F 30.29 in Calm     90% 0.00 in
04:04 27.0 °F 24.5 °F 30.30 in Calm     90% 0.00 in
04:09 27.0 °F 24.5 °F 30.30 in Calm     90% 0.00 in
04:14 26.9 °F 24.4 °F 30.30 in Calm     90% 0.00 in
04:19 26.7 °F 24.2 °F 30.30 in Calm     90% 0.00 in
04:24 26.6 °F 24.1 °F 30.30 in Calm     90% 0.00 in
04:29 26.5 °F 24.0 °F 30.30 in Calm     90% 0.00 in
04:34 26.4 °F 23.9 °F 30.30 in Calm     90% 0.00 in
04:39 26.2 °F 23.7 °F 30.30 in Calm     90% 0.00 in
04:44 26.2 °F 23.7 °F 30.31 in Calm     90% 0.00 in
04:49 26.3 °F 23.8 °F 30.31 in Calm     90% 0.00 in
04:54 26.3 °F 23.8 °F 30.31 in Calm     90% 0.00 in
04:59 26.3 °F 23.8 °F 30.31 in Calm     90% 0.00 in
05:04 26.3 °F 23.8 °F 30.32 in Calm     90% 0.00 in
05:09 26.2 °F 23.7 °F 30.32 in Calm     90% 0.00 in
05:14 26.2 °F 23.7 °F 30.32 in Calm     90% 0.00 in
05:19 26.1 °F 23.6 °F 30.32 in Calm     90% 0.00 in
05:24 25.8 °F 23.3 °F 30.32 in Calm     90% 0.00 in
05:29 26.1 °F 23.8 °F 30.32 in Calm     91% 0.00 in
05:34 26.5 °F 24.2 °F 30.32 in Calm     91% 0.00 in
05:39 26.7 °F 24.2 °F 30.32 in Calm     90% 0.00 in
05:44 26.9 °F 24.4 °F 30.32 in Calm     90% 0.00 in
05:49 26.9 °F 24.4 °F 30.32 in Calm     90% 0.00 in
05:59 26.5 °F 24.0 °F 30.32 in Calm     90% 0.00 in
06:04 26.6 °F 24.1 °F 30.33 in Calm     90% 0.00 in
06:09 26.9 °F 24.6 °F 30.33 in Calm     91% 0.00 in
06:14 26.9 °F 24.4 °F 30.33 in Calm     90% 0.00 in
06:19 27.0 °F 24.5 °F 30.33 in Calm     90% 0.00 in
06:24 27.2 °F 24.7 °F 30.33 in Calm     90% 0.00 in
06:29 27.4 °F 25.1 °F 30.33 in Calm     91% 0.00 in
06:34 27.6 °F 25.1 °F 30.33 in Calm   1.0 mph 90% 0.00 in
06:39 27.7 °F 25.2 °F 30.33 in Calm   2.0 mph 90% 0.00 in
06:44 28.0 °F 25.7 °F 30.33 in Calm   3.0 mph 91% 0.00 in
06:49 28.1 °F 25.5 °F 30.33 in Calm   2.0 mph 90% 0.00 in
06:54 28.1 °F 25.5 °F 30.33 in Calm     90% 0.00 in
06:59 28.2 °F 25.6 °F 30.32 in Calm   3.0 mph 90% 0.00 in
07:04 28.3 °F 25.7 °F 30.33 in Calm   3.0 mph 90% 0.00 in
07:09 28.3 °F 25.7 °F 30.33 in Calm     90% 0.00 in
07:14 28.5 °F 25.9 °F 30.33 in Calm     90% 0.00 in
07:19 28.6 °F 26.0 °F 30.33 in Calm     90% 0.00 in
07:24 28.8 °F 26.2 °F 30.33 in Calm     90% 0.00 in
07:29 29.0 °F 26.2 °F 30.33 in Calm     89% 0.00 in
07:34 29.0 °F 26.2 °F 30.33 in Calm     89% 0.00 in
07:39 29.3 °F 26.5 °F 30.33 in Calm     89% 0.00 in
07:44 29.5 °F 26.7 °F 30.33 in Calm     89% 0.00 in
07:49 29.7 °F 26.6 °F 30.33 in Calm     88% 0.00 in
07:54 29.8 °F 26.7 °F 30.33 in Calm     88% 0.00 in
07:59 29.9 °F 26.8 °F 30.33 in Calm     88% 0.00 in
08:04 30.1 °F 26.7 °F 30.33 in Calm     87% 0.00 in
08:09 30.5 °F 27.1 °F 30.34 in Calm     87% 0.00 in
08:14 31.0 °F 27.6 °F 30.34 in Calm     87% 0.00 in
08:19 31.3 °F 27.6 °F 30.34 in Calm     86% 0.00 in
08:24 31.7 °F 28.0 °F 30.34 in Calm     86% 0.00 in
08:29 31.7 °F 27.7 °F 30.34 in Calm     85% 0.00 in
08:34 31.7 °F 27.7 °F 30.34 in Calm     85% 0.00 in
08:39 31.9 °F 27.9 °F 30.34 in Calm     85% 0.00 in
08:44 32.1 °F 28.1 °F 30.34 in Calm     85% 0.00 in
08:49 32.3 °F 28.0 °F 30.34 in Calm     84% 0.00 in
08:54 32.6 °F 28.3 °F 30.34 in Calm     84% 0.00 in
08:59 33.4 °F 29.1 °F 30.34 in Calm     84% 0.00 in
09:04 34.0 °F 29.4 °F 30.34 in Calm     83% 0.00 in
09:09 34.6 °F 29.7 °F 30.34 in Calm     82% 0.00 in
09:14 35.2 °F 29.6 °F 30.34 in Calm     80% 0.00 in
09:19 35.8 °F 29.6 °F 30.34 in Calm     78% 0.00 in
09:24 36.4 °F 29.9 °F 30.34 in Calm     77% 0.00 in
09:34 37.5 °F 30.0 °F 30.34 in Calm     74% 0.00 in
09:39 39.0 °F 31.4 °F 30.34 in Calm     74% 0.00 in
09:44 39.1 °F 29.8 °F 30.34 in Calm     69% 0.00 in
09:49 38.8 °F 29.1 °F 30.34 in Calm     68% 0.00 in
09:54 38.6 °F 29.7 °F 30.34 in Calm     70% 0.00 in
10:04 39.6 °F 30.6 °F 30.33 in Calm     70% 0.00 in
10:09 39.9 °F 30.2 °F 30.33 in Calm     68% 0.00 in
10:14 40.3 °F 30.6 °F 30.33 in Calm     68% 0.00 in
10:19 40.4 °F 29.9 °F 30.33 in Calm     66% 0.00 in
10:24 40.6 °F 30.5 °F 30.33 in Calm     67% 0.00 in
10:29 40.6 °F 30.5 °F 30.33 in Calm     67% 0.00 in
10:34 40.9 °F 30.8 °F 30.33 in Calm     67% 0.00 in
10:39 41.1 °F 31.0 °F 30.33 in Calm     67% 0.00 in
10:44 41.8 °F 30.5 °F 30.33 in Calm     64% 0.00 in
10:49 42.9 °F 30.0 °F 30.33 in WSW 1.0 mph 3.0 mph 60% 0.00 in
10:54 42.8 °F 30.7 °F 30.33 in WSW 4.0 mph 5.0 mph 62% 0.00 in
10:59 43.8 °F 32.4 °F 30.33 in WSW 1.0 mph 5.0 mph 64% 0.00 in
11:04 44.0 °F 30.6 °F 30.32 in Calm   4.0 mph 59% 0.00 in
11:09 43.9 °F 30.9 °F 30.32 in Calm   4.0 mph 60% 0.00 in
11:14 44.8 °F 30.9 °F 30.32 in WSW 1.0 mph 5.0 mph 58% 0.00 in
11:19 45.4 °F 31.0 °F 30.32 in SE 4.0 mph 6.0 mph 57% 0.00 in
11:24 45.6 °F 30.8 °F 30.31 in SW 2.0 mph 6.0 mph 56% 0.00 in
11:29 45.3 °F 31.0 °F 30.31 in SSE 2.0 mph 7.0 mph 57% 0.00 in
11:34 45.3 °F 29.6 °F 30.31 in SSW 3.0 mph 7.0 mph 54% 0.00 in
11:39 45.8 °F 30.1 °F 30.31 in SW 3.0 mph 7.0 mph 54% 0.00 in
11:44 46.2 °F 30.5 °F 30.31 in SSW 4.0 mph 7.0 mph 54% 0.00 in
11:49 45.7 °F 30.0 °F 30.30 in SW 3.0 mph 9.0 mph 54% 0.00 in
11:54 46.5 °F 30.7 °F 30.30 in West 4.0 mph 7.0 mph 54% 0.00 in
11:59 46.6 °F 29.4 °F 30.30 in West 3.0 mph 10.0 mph 51% 0.00 in
12:04 46.5 °F 29.8 °F 30.30 in WSW 5.0 mph 10.0 mph 52% 0.00 in
12:09 46.5 °F 30.3 °F 30.29 in WSW 5.0 mph 10.0 mph 53% 0.00 in
12:14 46.2 °F 30.0 °F 30.29 in SW 4.0 mph 10.0 mph 53% 0.00 in
12:19 46.9 °F 30.6 °F 30.29 in SW 4.0 mph 9.0 mph 53% 0.00 in
12:24 47.0 °F 30.3 °F 30.29 in WSW 8.0 mph 8.0 mph 52% 0.00 in
12:29 46.6 °F 29.4 °F 30.29 in NE 5.0 mph 8.0 mph 51% 0.00 in
12:34 47.5 °F 30.7 °F 30.29 in SSW 4.0 mph 10.0 mph 52% 0.00 in
12:39 47.4 °F 30.2 °F 30.28 in SW 4.0 mph 11.0 mph 51% 0.00 in
12:44 47.0 °F 30.3 °F 30.28 in SW 5.0 mph 11.0 mph 52% 0.00 in
12:49 47.0 °F 29.8 °F 30.28 in West 7.0 mph 9.0 mph 51% 0.00 in
12:54 47.2 °F 30.0 °F 30.28 in West 6.0 mph 10.0 mph 51% 0.00 in
12:59 46.9 °F 28.7 °F 30.28 in SW 5.0 mph 11.0 mph 49% 0.00 in
13:04 47.0 °F 29.3 °F 30.27 in WSW 4.0 mph 10.0 mph 50% 0.00 in
13:09 47.0 °F 29.3 °F 30.27 in WSW 4.0 mph 12.0 mph 50% 0.00 in
13:14 47.0 °F 29.3 °F 30.28 in SW 5.0 mph 12.0 mph 50% 0.00 in
13:19 47.4 °F 31.1 °F 30.27 in SW 5.0 mph 12.0 mph 53% 0.00 in
13:24 47.0 °F 30.3 °F 30.27 in WSW 4.0 mph 8.0 mph 52% 0.00 in
13:29 46.9 °F 30.6 °F 30.27 in WSW 4.0 mph 11.0 mph 53% 0.00 in
13:34 46.7 °F 30.0 °F 30.27 in SW 6.0 mph 13.0 mph 52% 0.00 in
13:39 47.2 °F 30.9 °F 30.27 in WSW 2.0 mph 13.0 mph 53% 0.00 in
13:44 47.8 °F 31.5 °F 30.26 in WSW 5.0 mph 6.0 mph 53% 0.00 in
13:49 47.7 °F 31.4 °F 30.26 in SW 6.0 mph 11.0 mph 53% 0.00 in
13:54 47.0 °F 30.7 °F 30.26 in WSW 6.0 mph 11.0 mph 53% 0.00 in
13:59 47.6 °F 30.8 °F 30.26 in WSW 4.0 mph 11.0 mph 52% 0.00 in
14:04 47.1 °F 30.8 °F 30.26 in WNW 6.0 mph 12.0 mph 53% 0.00 in
14:09 47.0 °F 31.2 °F 30.26 in WSW 6.0 mph 13.0 mph 54% 0.00 in
14:14 47.0 °F 30.3 °F 30.26 in West 5.0 mph 13.0 mph 52% 0.00 in
14:19 47.1 °F 29.9 °F 30.26 in West 5.0 mph 12.0 mph 51% 0.00 in
14:24 46.8 °F 29.1 °F 30.25 in WSW 5.0 mph 12.0 mph 50% 0.00 in
14:29 47.3 °F 31.9 °F 30.25 in WSW 5.0 mph 12.0 mph 55% 0.00 in
14:34 47.4 °F 30.6 °F 30.25 in West 4.0 mph 9.0 mph 52% 0.00 in
14:39 47.4 °F 31.6 °F 30.25 in West 4.0 mph 13.0 mph 54% 0.00 in
14:44 47.6 °F 32.2 °F 30.25 in SW 7.0 mph 8.0 mph 55% 0.00 in
14:49 46.8 °F 30.6 °F 30.25 in WSW 3.0 mph 12.0 mph 53% 0.00 in
14:54 46.5 °F 31.6 °F 30.26 in West 3.0 mph 9.0 mph 56% 0.00 in
14:59 46.2 °F 31.8 °F 30.26 in SW 4.0 mph 9.0 mph 57% 0.00 in
15:04 45.6 °F 32.1 °F 30.26 in WSW 4.0 mph 8.0 mph 59% 0.00 in
15:09 44.8 °F 31.8 °F 30.26 in WSW 4.0 mph 10.0 mph 60% 0.00 in
15:14 45.6 °F 32.1 °F 30.26 in WSW 4.0 mph 10.0 mph 59% 0.00 in
15:19 45.8 °F 31.9 °F 30.26 in WSW 5.0 mph 12.0 mph 58% 0.00 in
15:24 45.9 °F 31.9 °F 30.26 in WSW 5.0 mph 12.0 mph 58% 0.00 in
15:29 45.8 °F 31.4 °F 30.26 in West 4.0 mph 12.0 mph 57% 0.00 in
15:34 45.1 °F 30.8 °F 30.26 in West 5.0 mph 12.0 mph 57% 0.00 in
15:39 44.2 °F 30.8 °F 30.26 in West 6.0 mph 12.0 mph 59% 0.00 in
15:44 44.4 °F 31.8 °F 30.26 in West 2.0 mph 7.0 mph 61% 0.00 in
15:49 44.3 °F 30.4 °F 30.26 in WSW 8.0 mph 11.0 mph 58% 0.00 in
15:54 44.1 °F 30.3 °F 30.25 in WSW 1.0 mph 8.0 mph 58% 0.00 in
15:59 43.8 °F 30.8 °F 30.25 in West 3.0 mph 6.0 mph 60% 0.00 in
16:04 43.7 °F 31.1 °F 30.25 in WSW 4.0 mph 10.0 mph 61% 0.00 in
16:09 43.8 °F 31.6 °F 30.25 in WSW 3.0 mph 7.0 mph 62% 0.00 in
16:14 43.7 °F 31.5 °F 30.25 in SW 6.0 mph 9.0 mph 62% 0.00 in
16:19 43.5 °F 31.7 °F 30.25 in SW 3.0 mph 7.0 mph 63% 0.00 in
16:24 43.3 °F 31.5 °F 30.25 in SW 3.0 mph 7.0 mph 63% 0.00 in
16:29 43.4 °F 31.6 °F 30.25 in WSW 3.0 mph 6.0 mph 63% 0.00 in
16:34 43.3 °F 31.5 °F 30.25 in WSW 2.0 mph 6.0 mph 63% 0.00 in
16:39 43.3 °F 31.5 °F 30.25 in WSW 2.0 mph 5.0 mph 63% 0.00 in
16:44 43.1 °F 31.7 °F 30.25 in WSW 2.0 mph 5.0 mph 64% 0.00 in
16:49 42.9 °F 31.9 °F 30.25 in SW 1.0 mph 5.0 mph 65% 0.00 in
16:54 42.6 °F 31.7 °F 30.25 in WSW 1.0 mph 5.0 mph 65% 0.00 in
16:59 42.5 °F 31.6 °F 30.25 in WSW 3.0 mph 7.0 mph 65% 0.00 in
17:04 42.5 °F 30.8 °F 30.25 in WSW 3.0 mph 7.0 mph 63% 0.00 in
17:09 42.7 °F 30.6 °F 30.25 in WSW 2.0 mph 8.0 mph 62% 0.00 in
17:14 42.5 °F 30.4 °F 30.25 in West 2.0 mph 5.0 mph 62% 0.00 in
17:19 42.2 °F 30.1 °F 30.25 in Calm   3.0 mph 62% 0.00 in
17:24 41.5 °F 29.8 °F 30.25 in Calm   1.0 mph 63% 0.00 in
17:29 40.7 °F 29.8 °F 30.25 in Calm   2.0 mph 65% 0.00 in
17:34 40.6 °F 29.7 °F 30.25 in Calm   3.0 mph 65% 0.00 in
17:39 40.7 °F 29.8 °F 30.25 in WSW 1.0 mph 3.0 mph 65% 0.00 in
17:44 40.7 °F 29.8 °F 30.25 in WSW 1.0 mph 3.0 mph 65% 0.00 in
17:49 40.3 °F 29.5 °F 30.25 in Calm   2.0 mph 65% 0.00 in
17:54 39.7 °F 29.6 °F 30.25 in Calm   1.0 mph 67% 0.00 in
17:59 39.0 °F 29.7 °F 30.25 in Calm   1.0 mph 69% 0.00 in
18:04 38.4 °F 29.5 °F 30.25 in Calm     70% 0.00 in
18:09 38.0 °F 29.4 °F 30.25 in Calm     71% 0.00 in
18:14 37.5 °F 29.3 °F 30.25 in Calm     72% 0.00 in
18:19 37.2 °F 29.3 °F 30.25 in Calm     73% 0.00 in
18:24 37.0 °F 29.5 °F 30.25 in Calm     74% 0.00 in
18:29 36.7 °F 29.5 °F 30.26 in Calm     75% 0.00 in
18:34 36.5 °F 29.3 °F 30.26 in Calm   2.0 mph 75% 0.00 in
18:39 36.2 °F 29.4 °F 30.26 in Calm   2.0 mph 76% 0.00 in
18:44 36.1 °F 29.6 °F 30.25 in Calm     77% 0.00 in
18:49 36.1 °F 29.6 °F 30.25 in Calm   1.0 mph 77% 0.00 in
18:54 36.0 °F 29.5 °F 30.26 in Calm     77% 0.00 in
18:59 36.0 °F 29.8 °F 30.25 in Calm     78% 0.00 in
19:04 36.1 °F 29.6 °F 30.25 in Calm   2.0 mph 77% 0.00 in
19:09 36.2 °F 29.7 °F 30.25 in Calm     77% 0.00 in
19:14 36.4 °F 29.9 °F 30.25 in Calm     77% 0.00 in
19:19 36.9 °F 30.4 °F 30.25 in Calm     77% 0.00 in
19:24 36.6 °F 29.7 °F 30.25 in Calm     76% 0.00 in
19:29 36.7 °F 29.8 °F 30.25 in Calm     76% 0.00 in
19:39 36.7 °F 29.8 °F 30.25 in Calm     76% 0.00 in
19:44 36.3 °F 29.8 °F 30.25 in Calm     77% 0.00 in
19:49 36.1 °F 29.6 °F 30.25 in Calm     77% 0.00 in
19:54 36.4 °F 29.9 °F 30.25 in Calm     77% 0.00 in
19:59 36.4 °F 29.9 °F 30.25 in Calm     77% 0.00 in
20:04 36.1 °F 29.6 °F 30.25 in Calm     77% 0.00 in
20:09 35.9 °F 29.4 °F 30.25 in Calm     77% 0.00 in
20:14 36.0 °F 29.8 °F 30.25 in Calm     78% 0.00 in
20:19 36.1 °F 29.6 °F 30.25 in Calm     77% 0.00 in
20:24 35.7 °F 29.5 °F 30.24 in Calm     78% 0.00 in
20:29 35.7 °F 29.5 °F 30.24 in Calm     78% 0.00 in
20:34 35.9 °F 29.7 °F 30.24 in Calm     78% 0.00 in
20:39 36.2 °F 30.0 °F 30.24 in Calm     78% 0.00 in
20:44 35.8 °F 29.3 °F 30.24 in Calm     77% 0.00 in
20:49 35.1 °F 28.9 °F 30.24 in Calm     78% 0.00 in
20:54 35.2 °F 29.3 °F 30.24 in Calm     79% 0.00 in
20:59 35.3 °F 29.1 °F 30.24 in Calm     78% 0.00 in
21:04 35.3 °F 29.4 °F 30.24 in Calm     79% 0.00 in
21:09 35.2 °F 29.0 °F 30.24 in Calm     78% 0.00 in
21:14 34.7 °F 28.9 °F 30.23 in Calm     79% 0.00 in
21:19 34.2 °F 28.4 °F 30.23 in Calm     79% 0.00 in
21:24 33.8 °F 28.3 °F 30.23 in Calm     80% 0.00 in
21:29 33.5 °F 28.0 °F 30.23 in Calm     80% 0.00 in
21:34 33.0 °F 27.8 °F 30.23 in Calm     81% 0.00 in
21:39 33.0 °F 28.1 °F 30.23 in Calm     82% 0.00 in
21:44 33.4 °F 28.5 °F 30.23 in Calm     82% 0.00 in
21:49 33.7 °F 28.8 °F 30.23 in Calm     82% 0.00 in
21:54 33.5 °F 28.6 °F 30.23 in Calm     82% 0.00 in
21:59 33.4 °F 28.5 °F 30.23 in Calm     82% 0.00 in
22:04 33.5 °F 28.6 °F 30.22 in Calm     82% 0.00 in
22:09 33.5 °F 28.6 °F 30.22 in Calm     82% 0.00 in
22:19 33.2 °F 28.3 °F 30.22 in Calm     82% 0.00 in
22:24 33.0 °F 28.1 °F 30.22 in Calm     82% 0.00 in
22:29 33.0 °F 28.1 °F 30.22 in Calm     82% 0.00 in
22:34 32.8 °F 27.9 °F 30.22 in Calm     82% 0.00 in
22:39 32.4 °F 27.5 °F 30.22 in Calm     82% 0.00 in
22:44 32.1 °F 27.5 °F 30.22 in Calm     83% 0.00 in
22:49 32.4 °F 28.1 °F 30.22 in Calm     84% 0.00 in
22:54 32.5 °F 28.2 °F 30.22 in Calm     84% 0.00 in
22:59 32.5 °F 28.2 °F 30.22 in Calm     84% 0.00 in
23:04 32.5 °F 28.2 °F 30.22 in Calm     84% 0.00 in
23:09 32.3 °F 27.7 °F 30.21 in Calm     83% 0.00 in
23:14 31.9 °F 27.3 °F 30.21 in Calm     83% 0.00 in
23:19 31.4 °F 27.1 °F 30.21 in Calm     84% 0.00 in
23:24 31.2 °F 27.2 °F 30.21 in Calm     85% 0.00 in
23:29 31.1 °F 27.1 °F 30.22 in Calm     85% 0.00 in
23:34 30.8 °F 26.8 °F 30.22 in Calm     85% 0.00 in
23:39 30.6 °F 26.6 °F 30.22 in Calm     85% 0.00 in
23:44 30.4 °F 26.4 °F 30.22 in Calm     85% 0.00 in
23:49 30.3 °F 26.6 °F 30.21 in Calm     86% 0.00 in
23:54 30.1 °F 26.4 °F 30.21 in Calm     86% 0.00 in
23:59 30.1 °F 26.7 °F 30.21 in Calm     87% 0.00 in
Buffalo, New York, USA
Compliments of Weather Underground - 2.5 mb